SHT22A EGLL-EGJB
Flight info
| Callsign | SHT22A |
|---|---|
| Flight time | 0h 36m |
| Altitude | 20000 |
| Route | GASGU2J GASGU N514 EVTES/N0368F190 N621 SAM/N0362F180 N63 LELNA |
| Aircraft | A320/M-SDE3FGHIRWY/LB1 |
Departure
| Time | 2026-04-26 18:58 |
|---|---|
| Airport | London Heathrow Airport (EGLL) |
Arrival
| Time | 2026-04-26 19:34 |
|---|---|
| Airport | Guernsey Airport (EGJB) |
| Time | Latitude | Longitude | Altitude | Speed | Heading |
|---|---|---|---|---|---|
| 2026-04-26 18:38 | 51.46931 | -0.48715 | 88 ft | 0 kts | 360° |
| 2026-04-26 18:49 | 51.46930 | -0.48715 | 86 ft | 1 kts | 360° |
| 2026-04-26 18:49 | 51.46916 | -0.48715 | 90 ft | 3 kts | 360° |
| 2026-04-26 18:49 | 51.46897 | -0.48715 | 88 ft | 3 kts | 0° |
| 2026-04-26 18:50 | 51.46882 | -0.48717 | 88 ft | 3 kts | 54° |
| 2026-04-26 18:50 | 51.46876 | -0.48740 | 86 ft | 2 kts | 89° |
| 2026-04-26 18:50 | 51.46876 | -0.48760 | 87 ft | 3 kts | 89° |
| 2026-04-26 18:50 | 51.46876 | -0.48790 | 86 ft | 2 kts | 89° |
| 2026-04-26 18:51 | 51.46876 | -0.48795 | 86 ft | 0 kts | 89° |
| 2026-04-26 18:53 | 51.46876 | -0.48791 | 86 ft | 2 kts | 91° |
| 2026-04-26 18:53 | 51.46848 | -0.48751 | 86 ft | 8 kts | 166° |
| 2026-04-26 18:53 | 51.46803 | -0.48750 | 86 ft | 1 kts | 181° |
| 2026-04-26 18:54 | 51.46802 | -0.48750 | 86 ft | 0 kts | 181° |
| 2026-04-26 18:54 | 51.46775 | -0.48750 | 86 ft | 7 kts | 179° |
| 2026-04-26 18:54 | 51.46700 | -0.48749 | 86 ft | 13 kts | 179° |
| 2026-04-26 18:55 | 51.46617 | -0.48758 | 89 ft | 9 kts | 196° |
| 2026-04-26 18:55 | 51.46568 | -0.48784 | 86 ft | 8 kts | 196° |
| 2026-04-26 18:55 | 51.46505 | -0.48771 | 88 ft | 11 kts | 144° |
| 2026-04-26 18:55 | 51.46478 | -0.48652 | 86 ft | 13 kts | 91° |
| 2026-04-26 18:56 | 51.46478 | -0.48584 | 86 ft | 0 kts | 90° |
| 2026-04-26 18:57 | 51.46478 | -0.48570 | 76 ft | 6 kts | 90° |
| 2026-04-26 18:57 | 51.46480 | -0.47905 | 88 ft | 89 kts | 90° |
| 2026-04-26 18:57 | 51.46484 | -0.46617 | 92 ft | 138 kts | 90° |
| 2026-04-26 18:58 | 51.46495 | -0.44908 | 359 ft | 159 kts | 90° |
| 2026-04-26 18:58 | 51.46501 | -0.43150 | 1044 ft | 158 kts | 89° |
| 2026-04-26 18:58 | 51.46372 | -0.41381 | 1535 ft | 169 kts | 113° |
| 2026-04-26 18:58 | 51.45650 | -0.39738 | 1830 ft | 192 kts | 126° |
| 2026-04-26 18:59 | 51.44812 | -0.37884 | 2168 ft | 218 kts | 124° |
| 2026-04-26 18:59 | 51.43898 | -0.35773 | 2642 ft | 242 kts | 125° |
| 2026-04-26 18:59 | 51.42663 | -0.33834 | 3329 ft | 257 kts | 148° |
| 2026-04-26 18:59 | 51.40976 | -0.32840 | 4205 ft | 263 kts | 173° |
| 2026-04-26 19:00 | 51.39145 | -0.33060 | 5107 ft | 269 kts | 197° |
| 2026-04-26 19:00 | 51.37498 | -0.34493 | 5786 ft | 274 kts | 220° |
| 2026-04-26 19:00 | 51.36082 | -0.36511 | 5990 ft | 272 kts | 223° |
| 2026-04-26 19:00 | 51.34696 | -0.38554 | 6029 ft | 271 kts | 223° |
| 2026-04-26 19:01 | 51.33314 | -0.40597 | 6038 ft | 270 kts | 223° |
| 2026-04-26 19:01 | 51.31938 | -0.42659 | 6060 ft | 274 kts | 227° |
| 2026-04-26 19:01 | 51.30930 | -0.45269 | 6878 ft | 277 kts | 245° |
| 2026-04-26 19:01 | 51.30119 | -0.48045 | 7882 ft | 275 kts | 245° |
| 2026-04-26 19:02 | 51.29295 | -0.50820 | 8778 ft | 278 kts | 245° |
| 2026-04-26 19:02 | 51.28459 | -0.53624 | 9637 ft | 281 kts | 245° |
| 2026-04-26 19:02 | 51.27614 | -0.56465 | 10465 ft | 286 kts | 245° |
| 2026-04-26 19:02 | 51.27039 | -0.58408 | 10688 ft | 300 kts | 245° |
| 2026-04-26 19:03 | 51.25801 | -0.62590 | 11089 ft | 325 kts | 245° |
| 2026-04-26 19:03 | 51.24825 | -0.65884 | 11757 ft | 331 kts | 245° |
| 2026-04-26 19:03 | 51.23839 | -0.69214 | 12502 ft | 333 kts | 245° |
| 2026-04-26 19:03 | 51.22848 | -0.72565 | 13270 ft | 335 kts | 245° |
| 2026-04-26 19:04 | 51.21849 | -0.75935 | 14022 ft | 337 kts | 245° |
| 2026-04-26 19:04 | 51.20842 | -0.79325 | 14675 ft | 340 kts | 245° |
| 2026-04-26 19:04 | 51.19827 | -0.82746 | 15288 ft | 343 kts | 245° |
| 2026-04-26 19:04 | 51.18803 | -0.86201 | 15887 ft | 347 kts | 245° |
| 2026-04-26 19:05 | 51.16717 | -0.93218 | 17074 ft | 354 kts | 245° |
| 2026-04-26 19:05 | 51.15651 | -0.96774 | 17667 ft | 358 kts | 245° |
| 2026-04-26 19:05 | 51.14570 | -1.00364 | 18266 ft | 361 kts | 245° |
| 2026-04-26 19:06 | 51.13478 | -1.03990 | 18823 ft | 365 kts | 245° |
| 2026-04-26 19:06 | 51.12378 | -1.07639 | 19382 ft | 367 kts | 245° |
| 2026-04-26 19:06 | 51.11272 | -1.11316 | 19946 ft | 369 kts | 245° |
| 2026-04-26 19:06 | 51.10159 | -1.15013 | 20204 ft | 370 kts | 245° |
| 2026-04-26 19:07 | 51.08948 | -1.18630 | 20268 ft | 373 kts | 238° |
| 2026-04-26 19:07 | 51.07326 | -1.21861 | 20271 ft | 375 kts | 226° |
| 2026-04-26 19:07 | 51.05317 | -1.24522 | 20279 ft | 378 kts | 216° |
| 2026-04-26 19:07 | 51.03104 | -1.26774 | 20272 ft | 378 kts | 214° |
| 2026-04-26 19:08 | 51.00884 | -1.29027 | 20272 ft | 378 kts | 214° |
| 2026-04-26 19:08 | 50.98668 | -1.31280 | 20275 ft | 378 kts | 214° |
| 2026-04-26 19:08 | 50.96456 | -1.33535 | 20273 ft | 378 kts | 214° |
| 2026-04-26 19:08 | 50.94161 | -1.35590 | 20273 ft | 380 kts | 209° |
| 2026-04-26 19:09 | 50.91803 | -1.37477 | 20270 ft | 380 kts | 209° |
| 2026-04-26 19:09 | 50.90241 | -1.38724 | 20281 ft | 380 kts | 209° |
| 2026-04-26 19:09 | 50.87880 | -1.40607 | 20282 ft | 380 kts | 209° |
| 2026-04-26 19:09 | 50.85521 | -1.42488 | 20282 ft | 380 kts | 209° |
| 2026-04-26 19:10 | 50.83163 | -1.44369 | 20289 ft | 379 kts | 209° |
| 2026-04-26 19:10 | 50.80808 | -1.46245 | 20291 ft | 379 kts | 209° |
| 2026-04-26 19:10 | 50.78453 | -1.48117 | 20293 ft | 379 kts | 209° |
| 2026-04-26 19:10 | 50.76097 | -1.49984 | 20296 ft | 379 kts | 209° |
| 2026-04-26 19:11 | 50.73745 | -1.51852 | 20295 ft | 378 kts | 209° |
| 2026-04-26 19:11 | 50.71394 | -1.53721 | 20295 ft | 378 kts | 209° |
| 2026-04-26 19:11 | 50.69040 | -1.55584 | 20295 ft | 378 kts | 209° |
| 2026-04-26 19:11 | 50.66686 | -1.57443 | 20293 ft | 378 kts | 209° |
| 2026-04-26 19:12 | 50.64334 | -1.59297 | 20291 ft | 378 kts | 209° |
| 2026-04-26 19:12 | 50.61981 | -1.61153 | 20285 ft | 378 kts | 209° |
| 2026-04-26 19:12 | 50.59627 | -1.63012 | 20288 ft | 378 kts | 209° |
| 2026-04-26 19:12 | 50.57278 | -1.64864 | 20287 ft | 378 kts | 209° |
| 2026-04-26 19:13 | 50.54938 | -1.66702 | 20289 ft | 378 kts | 209° |
| 2026-04-26 19:13 | 50.52583 | -1.68544 | 20290 ft | 378 kts | 208° |
| 2026-04-26 19:13 | 50.50227 | -1.70383 | 20291 ft | 378 kts | 209° |
| 2026-04-26 19:13 | 50.47873 | -1.72225 | 20289 ft | 378 kts | 209° |
| 2026-04-26 19:14 | 50.45524 | -1.74064 | 20290 ft | 378 kts | 209° |
| 2026-04-26 19:14 | 50.43342 | -1.75775 | 20290 ft | 378 kts | 209° |
| 2026-04-26 19:14 | 50.40990 | -1.77617 | 20290 ft | 378 kts | 209° |
| 2026-04-26 19:14 | 50.39433 | -1.78834 | 20279 ft | 378 kts | 209° |
| 2026-04-26 19:15 | 50.36287 | -1.81287 | 20281 ft | 378 kts | 208° |
| 2026-04-26 19:15 | 50.33934 | -1.83117 | 20283 ft | 378 kts | 208° |
| 2026-04-26 19:15 | 50.31575 | -1.84952 | 20291 ft | 378 kts | 208° |
| 2026-04-26 19:15 | 50.29423 | -1.86622 | 20292 ft | 378 kts | 208° |
| 2026-04-26 19:16 | 50.27069 | -1.88446 | 20291 ft | 377 kts | 208° |
| 2026-04-26 19:16 | 50.24715 | -1.90269 | 20292 ft | 377 kts | 208° |
| 2026-04-26 19:16 | 50.22364 | -1.92090 | 20288 ft | 377 kts | 208° |
| 2026-04-26 19:16 | 50.20015 | -1.93908 | 20288 ft | 377 kts | 208° |
| 2026-04-26 19:17 | 50.17665 | -1.95727 | 20276 ft | 377 kts | 208° |
| 2026-04-26 19:17 | 50.15314 | -1.97547 | 20278 ft | 377 kts | 208° |
| 2026-04-26 19:17 | 50.12967 | -1.99357 | 20276 ft | 377 kts | 208° |
| 2026-04-26 19:17 | 50.10644 | -2.01143 | 20070 ft | 367 kts | 208° |
| 2026-04-26 19:18 | 50.08384 | -2.02876 | 19826 ft | 357 kts | 208° |
| 2026-04-26 19:18 | 50.06214 | -2.04540 | 19588 ft | 350 kts | 208° |
| 2026-04-26 19:18 | 50.04040 | -2.06204 | 19347 ft | 347 kts | 208° |
| 2026-04-26 19:18 | 50.01876 | -2.07857 | 19106 ft | 346 kts | 208° |
| 2026-04-26 19:19 | 49.99733 | -2.09527 | 18852 ft | 341 kts | 212° |
| 2026-04-26 19:19 | 49.97809 | -2.11616 | 18445 ft | 335 kts | 223° |
| 2026-04-26 19:19 | 49.96203 | -2.14201 | 17969 ft | 331 kts | 230° |
| 2026-04-26 19:19 | 49.94692 | -2.16875 | 17515 ft | 328 kts | 230° |
| 2026-04-26 19:20 | 49.93186 | -2.19516 | 17065 ft | 326 kts | 229° |
| 2026-04-26 19:20 | 49.92173 | -2.21289 | 16783 ft | 324 kts | 229° |
| 2026-04-26 19:20 | 49.90197 | -2.24738 | 16209 ft | 322 kts | 229° |
| 2026-04-26 19:20 | 49.88712 | -2.27325 | 15787 ft | 320 kts | 228° |
| 2026-04-26 19:21 | 49.87232 | -2.29899 | 15351 ft | 319 kts | 228° |
| 2026-04-26 19:21 | 49.85757 | -2.32463 | 14925 ft | 318 kts | 228° |
| 2026-04-26 19:21 | 49.84286 | -2.35020 | 14504 ft | 317 kts | 227° |
| 2026-04-26 19:21 | 49.82819 | -2.37569 | 14083 ft | 317 kts | 227° |
| 2026-04-26 19:22 | 49.81354 | -2.40110 | 13626 ft | 316 kts | 227° |
| 2026-04-26 19:22 | 49.79899 | -2.42638 | 13205 ft | 314 kts | 227° |
| 2026-04-26 19:22 | 49.78453 | -2.45150 | 12793 ft | 312 kts | 228° |
| 2026-04-26 19:22 | 49.77005 | -2.47655 | 12370 ft | 312 kts | 227° |
| 2026-04-26 19:23 | 49.75555 | -2.50151 | 11968 ft | 311 kts | 227° |
| 2026-04-26 19:23 | 49.74114 | -2.52634 | 11567 ft | 309 kts | 228° |
| 2026-04-26 19:23 | 49.72677 | -2.55099 | 11200 ft | 308 kts | 226° |
| 2026-04-26 19:23 | 49.71033 | -2.57206 | 10827 ft | 308 kts | 212° |
| 2026-04-26 19:24 | 49.69102 | -2.58628 | 10464 ft | 308 kts | 200° |
| 2026-04-26 19:24 | 49.67006 | -2.59298 | 10102 ft | 308 kts | 186° |
| 2026-04-26 19:24 | 49.62766 | -2.59507 | 9406 ft | 301 kts | 184° |
| 2026-04-26 19:25 | 49.60741 | -2.60097 | 9076 ft | 295 kts | 205° |
| 2026-04-26 19:25 | 49.59592 | -2.61178 | 8842 ft | 291 kts | 222° |
| 2026-04-26 19:25 | 49.58123 | -2.64568 | 8314 ft | 283 kts | 249° |
| 2026-04-26 19:25 | 49.57415 | -2.67338 | 7890 ft | 274 kts | 251° |
| 2026-04-26 19:26 | 49.56736 | -2.70072 | 7468 ft | 272 kts | 250° |
| 2026-04-26 19:26 | 49.56075 | -2.72776 | 7051 ft | 269 kts | 251° |
| 2026-04-26 19:26 | 49.55418 | -2.75475 | 6645 ft | 270 kts | 250° |
| 2026-04-26 19:26 | 49.54754 | -2.78191 | 6232 ft | 272 kts | 250° |
| 2026-04-26 19:27 | 49.54080 | -2.80921 | 5787 ft | 273 kts | 251° |
| 2026-04-26 19:27 | 49.53415 | -2.83581 | 5360 ft | 268 kts | 250° |
| 2026-04-26 19:27 | 49.52751 | -2.86230 | 4940 ft | 263 kts | 251° |
| 2026-04-26 19:27 | 49.52096 | -2.88848 | 4510 ft | 262 kts | 250° |
| 2026-04-26 19:28 | 49.51367 | -2.91422 | 4154 ft | 264 kts | 238° |
| 2026-04-26 19:28 | 49.50043 | -2.93336 | 3854 ft | 264 kts | 208° |
| 2026-04-26 19:28 | 49.48292 | -2.94060 | 3582 ft | 259 kts | 184° |
| 2026-04-26 19:28 | 49.46528 | -2.94157 | 3360 ft | 247 kts | 180° |
| 2026-04-26 19:29 | 49.44849 | -2.94190 | 3161 ft | 236 kts | 180° |
| 2026-04-26 19:29 | 49.43267 | -2.93981 | 2959 ft | 223 kts | 159° |
| 2026-04-26 19:29 | 49.42108 | -2.92605 | 2753 ft | 207 kts | 115° |
| 2026-04-26 19:29 | 49.41940 | -2.90549 | 2556 ft | 194 kts | 69° |
| 2026-04-26 19:30 | 49.42572 | -2.88769 | 2494 ft | 184 kts | 62° |
| 2026-04-26 19:30 | 49.42765 | -2.86920 | 2516 ft | 181 kts | 95° |
| 2026-04-26 19:30 | 49.42724 | -2.84982 | 2511 ft | 183 kts | 84° |
| 2026-04-26 19:30 | 49.42787 | -2.83693 | 2503 ft | 183 kts | 84° |
| 2026-04-26 19:31 | 49.42888 | -2.81089 | 2509 ft | 184 kts | 85° |
| 2026-04-26 19:31 | 49.42952 | -2.79127 | 2509 ft | 184 kts | 86° |
| 2026-04-26 19:31 | 49.43012 | -2.77164 | 2509 ft | 184 kts | 85° |
| 2026-04-26 19:31 | 49.43073 | -2.75208 | 2510 ft | 181 kts | 85° |
| 2026-04-26 19:32 | 49.43132 | -2.73341 | 2180 ft | 174 kts | 85° |
| 2026-04-26 19:32 | 49.43192 | -2.71505 | 1799 ft | 169 kts | 88° |
| 2026-04-26 19:32 | 49.43233 | -2.69727 | 1445 ft | 163 kts | 88° |
| 2026-04-26 19:32 | 49.43273 | -2.68112 | 1318 ft | 143 kts | 87° |
| 2026-04-26 19:33 | 49.43327 | -2.66630 | 1043 ft | 134 kts | 86° |
| 2026-04-26 19:33 | 49.43357 | -2.65228 | 834 ft | 131 kts | 87° |
| 2026-04-26 19:33 | 49.43398 | -2.63842 | 680 ft | 131 kts | 85° |
| 2026-04-26 19:33 | 49.43438 | -2.62443 | 487 ft | 132 kts | 88° |
| 2026-04-26 19:34 | 49.43476 | -2.61041 | 319 ft | 128 kts | 86° |
| 2026-04-26 19:34 | 49.43503 | -2.59885 | 323 ft | 77 kts | 90° |
| 2026-04-26 19:34 | 49.43524 | -2.59433 | 332 ft | 27 kts | 88° |
| 2026-04-26 19:34 | 49.43514 | -2.59233 | 334 ft | 13 kts | 122° |
| 2026-04-26 19:35 | 49.43442 | -2.59198 | 333 ft | 7 kts | 179° |
| 2026-04-26 19:35 | 49.43410 | -2.59196 | 330 ft | 0 kts | 177° |